Sign in

Goboko Update

On the 31st December 2018 and 1st January 2019 we'll be migrating to a new Goboko platform and booking operations will not be possible

The new iPhone app will be available in March 2019

In the meantime, mobile device users can continue to use Goboko through a browser

Info

Aviation weather

METAR EGKB 231320Z 34010KT 9999 BKN010 00/M01 Q1002

TAF TAF AMD EGKB 231229Z 2312/2321 34009KT 9999 FEW020 TEMPO 2312/2314 BKN008

Aviation weather from ADDS. Re-check weather before flight.

-